sensor_id;sensor_type;location;lat;lon;timestamp;P1;durP1;ratioP1;P2;durP2;ratioP2
67037;SDS011;53940;53.204;6.590;2024-02-16T00:00:10;1.45;;;0.50;;
67037;SDS011;53940;53.204;6.590;2024-02-16T00:03:11;1.20;;;0.55;;
67037;SDS011;53940;53.204;6.590;2024-02-16T00:06:11;0.60;;;0.40;;
67037;SDS011;53940;53.204;6.590;2024-02-16T00:09:12;1.23;;;0.50;;
67037;SDS011;53940;53.204;6.590;2024-02-16T00:12:12;0.98;;;0.47;;
67037;SDS011;53940;53.204;6.590;2024-02-16T00:15:14;0.90;;;0.50;;
67037;SDS011;53940;53.204;6.590;2024-02-16T00:18:15;1.33;;;0.60;;
67037;SDS011;53940;53.204;6.590;2024-02-16T00:21:15;0.82;;;0.32;;
67037;SDS011;53940;53.204;6.590;2024-02-16T00:24:16;0.65;;;0.40;;
67037;SDS011;53940;53.204;6.590;2024-02-16T00:27:17;1.13;;;0.40;;
67037;SDS011;53940;53.204;6.590;2024-02-16T00:30:18;0.70;;;0.50;;
67037;SDS011;53940;53.204;6.590;2024-02-16T00:33:19;1.20;;;0.60;;
67037;SDS011;53940;53.204;6.590;2024-02-16T00:36:19;0.85;;;0.55;;
67037;SDS011;53940;53.204;6.590;2024-02-16T00:39:20;0.85;;;0.50;;
67037;SDS011;53940;53.204;6.590;2024-02-16T00:42:21;0.70;;;0.40;;
67037;SDS011;53940;53.204;6.590;2024-02-16T00:45:26;0.93;;;0.50;;
67037;SDS011;53940;53.204;6.590;2024-02-16T00:48:27;0.93;;;0.50;;
67037;SDS011;53940;53.204;6.590;2024-02-16T00:51:27;0.77;;;0.40;;
67037;SDS011;53940;53.204;6.590;2024-02-16T00:54:27;0.80;;;0.30;;
67037;SDS011;53940;53.204;6.590;2024-02-16T00:57:28;0.63;;;0.40;;
67037;SDS011;53940;53.204;6.590;2024-02-16T01:00:28;0.95;;;0.50;;
67037;SDS011;53940;53.204;6.590;2024-02-16T01:03:28;0.77;;;0.43;;
67037;SDS011;53940;53.204;6.590;2024-02-16T01:06:29;0.75;;;0.40;;
67037;SDS011;53940;53.204;6.590;2024-02-16T01:09:29;0.85;;;0.52;;
67037;SDS011;53940;53.204;6.590;2024-02-16T01:12:29;0.82;;;0.50;;
67037;SDS011;53940;53.204;6.590;2024-02-16T01:15:31;0.55;;;0.35;;
67037;SDS011;53940;53.204;6.590;2024-02-16T01:18:31;0.88;;;0.50;;
67037;SDS011;53940;53.204;6.590;2024-02-16T01:21:33;2.00;;;0.55;;
67037;SDS011;53940;53.204;6.590;2024-02-16T01:24:33;1.05;;;0.40;;
67037;SDS011;53940;53.204;6.590;2024-02-16T01:27:34;0.98;;;0.43;;
67037;SDS011;53940;53.204;6.590;2024-02-16T01:30:35;0.80;;;0.40;;
67037;SDS011;53940;53.204;6.590;2024-02-16T01:33:36;0.45;;;0.30;;
67037;SDS011;53940;53.204;6.590;2024-02-16T01:36:37;0.70;;;0.40;;
67037;SDS011;53940;53.204;6.590;2024-02-16T01:39:37;0.47;;;0.20;;
67037;SDS011;53940;53.204;6.590;2024-02-16T01:42:38;1.25;;;0.50;;
67037;SDS011;53940;53.204;6.590;2024-02-16T01:45:38;0.57;;;0.40;;
67037;SDS011;53940;53.204;6.590;2024-02-16T01:48:38;0.82;;;0.50;;
67037;SDS011;53940;53.204;6.590;2024-02-16T01:51:42;0.80;;;0.40;;
67037;SDS011;53940;53.204;6.590;2024-02-16T01:54:45;0.30;;;0.25;;
67037;SDS011;53940;53.204;6.590;2024-02-16T01:57:46;0.43;;;0.30;;
67037;SDS011;53940;53.204;6.590;2024-02-16T02:00:47;0.57;;;0.40;;
67037;SDS011;53940;53.204;6.590;2024-02-16T02:03:47;0.65;;;0.40;;
67037;SDS011;53940;53.204;6.590;2024-02-16T02:06:48;0.95;;;0.50;;
67037;SDS011;53940;53.204;6.590;2024-02-16T02:09:48;0.70;;;0.50;;
67037;SDS011;53940;53.204;6.590;2024-02-16T02:12:49;0.57;;;0.40;;
67037;SDS011;53940;53.204;6.590;2024-02-16T02:15:49;0.52;;;0.30;;
67037;SDS011;53940;53.204;6.590;2024-02-16T02:18:50;0.88;;;0.45;;
67037;SDS011;53940;53.204;6.590;2024-02-16T02:21:50;0.50;;;0.40;;
67037;SDS011;53940;53.204;6.590;2024-02-16T02:24:50;0.28;;;0.20;;
67037;SDS011;53940;53.204;6.590;2024-02-16T02:27:51;0.90;;;0.40;;
67037;SDS011;53940;53.204;6.590;2024-02-16T02:30:51;0.95;;;0.50;;
67037;SDS011;53940;53.204;6.590;2024-02-16T02:33:53;0.70;;;0.40;;
67037;SDS011;53940;53.204;6.590;2024-02-16T02:36:53;0.55;;;0.40;;
67037;SDS011;53940;53.204;6.590;2024-02-16T02:39:54;2.40;;;0.50;;
67037;SDS011;53940;53.204;6.590;2024-02-16T02:42:54;0.95;;;0.50;;
67037;SDS011;53940;53.204;6.590;2024-02-16T02:45:54;0.38;;;0.35;;
67037;SDS011;53940;53.204;6.590;2024-02-16T02:48:55;1.00;;;0.40;;
67037;SDS011;53940;53.204;6.590;2024-02-16T02:51:55;0.77;;;0.50;;
67037;SDS011;53940;53.204;6.590;2024-02-16T02:54:55;0.68;;;0.40;;
67037;SDS011;53940;53.204;6.590;2024-02-16T02:57:56;0.70;;;0.38;;
67037;SDS011;53940;53.204;6.590;2024-02-16T03:00:57;0.77;;;0.43;;
67037;SDS011;53940;53.204;6.590;2024-02-16T03:03:58;1.08;;;0.60;;
67037;SDS011;53940;53.204;6.590;2024-02-16T03:07:00;0.75;;;0.40;;
67037;SDS011;53940;53.204;6.590;2024-02-16T03:10:00;0.77;;;0.50;;
67037;SDS011;53940;53.204;6.590;2024-02-16T03:13:02;1.50;;;0.50;;
67037;SDS011;53940;53.204;6.590;2024-02-16T03:16:03;1.23;;;0.63;;
67037;SDS011;53940;53.204;6.590;2024-02-16T03:19:05;0.75;;;0.50;;
67037;SDS011;53940;53.204;6.590;2024-02-16T03:22:08;0.80;;;0.47;;
67037;SDS011;53940;53.204;6.590;2024-02-16T03:25:09;1.33;;;0.70;;
67037;SDS011;53940;53.204;6.590;2024-02-16T03:31:23;1.35;;;0.60;;
67037;SDS011;53940;53.204;6.590;2024-02-16T03:34:24;1.10;;;0.47;;
67037;SDS011;53940;53.204;6.590;2024-02-16T03:37:24;1.58;;;0.60;;
67037;SDS011;53940;53.204;6.590;2024-02-16T03:40:25;0.82;;;0.50;;
67037;SDS011;53940;53.204;6.590;2024-02-16T03:43:26;1.38;;;0.82;;
67037;SDS011;53940;53.204;6.590;2024-02-16T03:46:26;1.25;;;0.60;;
67037;SDS011;53940;53.204;6.590;2024-02-16T03:49:27;0.95;;;0.55;;
67037;SDS011;53940;53.204;6.590;2024-02-16T03:52:30;0.75;;;0.40;;
67037;SDS011;53940;53.204;6.590;2024-02-16T03:55:30;1.27;;;0.60;;
67037;SDS011;53940;53.204;6.590;2024-02-16T03:58:36;1.02;;;0.50;;
67037;SDS011;53940;53.204;6.590;2024-02-16T04:01:37;0.85;;;0.45;;
67037;SDS011;53940;53.204;6.590;2024-02-16T04:04:37;1.45;;;0.68;;
67037;SDS011;53940;53.204;6.590;2024-02-16T04:07:37;2.38;;;0.70;;
67037;SDS011;53940;53.204;6.590;2024-02-16T04:10:38;1.35;;;0.68;;
67037;SDS011;53940;53.204;6.590;2024-02-16T04:13:38;1.20;;;0.60;;
67037;SDS011;53940;53.204;6.590;2024-02-16T04:16:39;1.63;;;0.80;;
67037;SDS011;53940;53.204;6.590;2024-02-16T04:19:43;0.82;;;0.55;;
67037;SDS011;53940;53.204;6.590;2024-02-16T04:22:43;1.40;;;0.65;;
67037;SDS011;53940;53.204;6.590;2024-02-16T04:25:44;1.48;;;0.80;;
67037;SDS011;53940;53.204;6.590;2024-02-16T04:28:44;1.52;;;0.80;;
67037;SDS011;53940;53.204;6.590;2024-02-16T04:31:45;2.03;;;0.70;;
67037;SDS011;53940;53.204;6.590;2024-02-16T04:34:46;1.52;;;0.73;;
67037;SDS011;53940;53.204;6.590;2024-02-16T04:37:46;1.33;;;0.63;;
67037;SDS011;53940;53.204;6.590;2024-02-16T04:40:47;1.80;;;0.70;;
67037;SDS011;53940;53.204;6.590;2024-02-16T04:43:47;1.85;;;0.80;;
67037;SDS011;53940;53.204;6.590;2024-02-16T04:46:48;1.17;;;0.77;;
67037;SDS011;53940;53.204;6.590;2024-02-16T04:49:52;1.48;;;0.77;;
67037;SDS011;53940;53.204;6.590;2024-02-16T04:52:52;2.00;;;0.70;;
67037;SDS011;53940;53.204;6.590;2024-02-16T04:55:52;1.60;;;0.70;;
67037;SDS011;53940;53.204;6.590;2024-02-16T04:58:53;1.10;;;0.60;;
67037;SDS011;53940;53.204;6.590;2024-02-16T05:01:53;1.30;;;0.70;;
67037;SDS011;53940;53.204;6.590;2024-02-16T05:04:53;1.42;;;0.60;;
67037;SDS011;53940;53.204;6.590;2024-02-16T05:07:54;1.45;;;0.50;;
67037;SDS011;53940;53.204;6.590;2024-02-16T05:10:54;1.25;;;0.70;;
67037;SDS011;53940;53.204;6.590;2024-02-16T05:13:55;1.40;;;0.80;;
67037;SDS011;53940;53.204;6.590;2024-02-16T05:16:55;1.08;;;0.60;;
67037;SDS011;53940;53.204;6.590;2024-02-16T05:19:55;1.23;;;0.60;;
67037;SDS011;53940;53.204;6.590;2024-02-16T05:22:56;0.90;;;0.60;;
67037;SDS011;53940;53.204;6.590;2024-02-16T05:25:56;1.60;;;0.70;;
67037;SDS011;53940;53.204;6.590;2024-02-16T05:28:57;1.35;;;0.63;;
67037;SDS011;53940;53.204;6.590;2024-02-16T05:31:57;1.58;;;0.70;;
67037;SDS011;53940;53.204;6.590;2024-02-16T05:34:57;1.08;;;0.68;;
67037;SDS011;53940;53.204;6.590;2024-02-16T05:37:58;1.40;;;0.68;;
67037;SDS011;53940;53.204;6.590;2024-02-16T05:40:59;1.27;;;0.60;;
67037;SDS011;53940;53.204;6.590;2024-02-16T05:43:59;1.80;;;0.80;;
67037;SDS011;53940;53.204;6.590;2024-02-16T05:47:00;1.40;;;0.70;;
67037;SDS011;53940;53.204;6.590;2024-02-16T05:50:00;1.88;;;0.70;;
67037;SDS011;53940;53.204;6.590;2024-02-16T05:53:00;1.38;;;0.77;;
67037;SDS011;53940;53.204;6.590;2024-02-16T05:56:01;1.20;;;0.70;;
67037;SDS011;53940;53.204;6.590;2024-02-16T05:59:02;1.42;;;0.70;;
67037;SDS011;53940;53.204;6.590;2024-02-16T06:02:03;1.17;;;0.85;;
67037;SDS011;53940;53.204;6.590;2024-02-16T06:05:04;1.65;;;0.70;;
67037;SDS011;53940;53.204;6.590;2024-02-16T06:08:04;1.60;;;0.77;;
67037;SDS011;53940;53.204;6.590;2024-02-16T06:11:07;1.58;;;0.73;;
67037;SDS011;53940;53.204;6.590;2024-02-16T06:14:07;2.08;;;0.70;;
67037;SDS011;53940;53.204;6.590;2024-02-16T06:17:08;1.50;;;0.70;;
67037;SDS011;53940;53.204;6.590;2024-02-16T06:20:09;1.50;;;0.73;;
67037;SDS011;53940;53.204;6.590;2024-02-16T06:23:11;2.00;;;0.70;;
67037;SDS011;53940;53.204;6.590;2024-02-16T06:26:11;1.00;;;0.60;;
67037;SDS011;53940;53.204;6.590;2024-02-16T06:29:11;1.60;;;0.80;;
67037;SDS011;53940;53.204;6.590;2024-02-16T06:32:12;1.80;;;0.77;;
67037;SDS011;53940;53.204;6.590;2024-02-16T06:35:13;1.38;;;0.60;;
67037;SDS011;53940;53.204;6.590;2024-02-16T06:38:14;0.90;;;0.57;;
67037;SDS011;53940;53.204;6.590;2024-02-16T06:41:14;1.33;;;0.60;;
67037;SDS011;53940;53.204;6.590;2024-02-16T06:44:16;1.65;;;0.75;;
67037;SDS011;53940;53.204;6.590;2024-02-16T06:47:16;2.03;;;0.80;;
67037;SDS011;53940;53.204;6.590;2024-02-16T06:50:17;1.30;;;0.60;;
67037;SDS011;53940;53.204;6.590;2024-02-16T06:53:17;2.22;;;0.77;;
67037;SDS011;53940;53.204;6.590;2024-02-16T06:56:17;1.45;;;0.80;;
67037;SDS011;53940;53.204;6.590;2024-02-16T06:59:18;1.67;;;0.60;;
67037;SDS011;53940;53.204;6.590;2024-02-16T07:02:18;2.30;;;0.70;;
67037;SDS011;53940;53.204;6.590;2024-02-16T07:05:19;1.20;;;0.60;;
67037;SDS011;53940;53.204;6.590;2024-02-16T07:08:19;1.95;;;0.80;;
67037;SDS011;53940;53.204;6.590;2024-02-16T07:11:19;0.98;;;0.57;;
67037;SDS011;53940;53.204;6.590;2024-02-16T07:14:21;1.67;;;0.70;;
67037;SDS011;53940;53.204;6.590;2024-02-16T07:17:21;1.33;;;0.70;;
67037;SDS011;53940;53.204;6.590;2024-02-16T07:20:21;1.40;;;0.90;;
67037;SDS011;53940;53.204;6.590;2024-02-16T07:23:22;1.48;;;0.63;;
67037;SDS011;53940;53.204;6.590;2024-02-16T07:26:22;1.58;;;0.65;;
67037;SDS011;53940;53.204;6.590;2024-02-16T07:29:22;1.30;;;0.65;;
67037;SDS011;53940;53.204;6.590;2024-02-16T07:32:23;1.40;;;0.60;;
67037;SDS011;53940;53.204;6.590;2024-02-16T07:35:24;1.58;;;0.70;;
67037;SDS011;53940;53.204;6.590;2024-02-16T07:38:24;1.65;;;0.65;;
67037;SDS011;53940;53.204;6.590;2024-02-16T07:41:25;1.17;;;0.50;;
67037;SDS011;53940;53.204;6.590;2024-02-16T07:44:27;0.82;;;0.50;;
67037;SDS011;53940;53.204;6.590;2024-02-16T07:47:28;1.75;;;0.60;;
67037;SDS011;53940;53.204;6.590;2024-02-16T07:50:28;1.20;;;0.60;;
67037;SDS011;53940;53.204;6.590;2024-02-16T07:53:28;0.82;;;0.57;;
67037;SDS011;53940;53.204;6.590;2024-02-16T07:56:29;1.15;;;0.60;;
67037;SDS011;53940;53.204;6.590;2024-02-16T07:59:30;1.13;;;0.60;;
67037;SDS011;53940;53.204;6.590;2024-02-16T08:02:31;0.90;;;0.57;;
67037;SDS011;53940;53.204;6.590;2024-02-16T08:05:31;0.88;;;0.47;;
67037;SDS011;53940;53.204;6.590;2024-02-16T08:08:31;0.80;;;0.50;;
67037;SDS011;53940;53.204;6.590;2024-02-16T08:11:32;2.05;;;0.70;;
67037;SDS011;53940;53.204;6.590;2024-02-16T08:14:33;1.58;;;0.60;;
67037;SDS011;53940;53.204;6.590;2024-02-16T08:17:34;1.35;;;0.57;;
67037;SDS011;53940;53.204;6.590;2024-02-16T08:20:35;1.30;;;0.70;;
67037;SDS011;53940;53.204;6.590;2024-02-16T08:23:36;1.30;;;0.55;;
67037;SDS011;53940;53.204;6.590;2024-02-16T08:26:38;1.15;;;0.57;;
67037;SDS011;53940;53.204;6.590;2024-02-16T08:29:38;1.40;;;0.68;;
67037;SDS011;53940;53.204;6.590;2024-02-16T08:32:39;4.00;;;0.73;;
67037;SDS011;53940;53.204;6.590;2024-02-16T08:35:39;1.33;;;0.60;;
67037;SDS011;53940;53.204;6.590;2024-02-16T08:38:39;0.85;;;0.50;;
67037;SDS011;53940;53.204;6.590;2024-02-16T08:41:40;1.80;;;0.57;;
67037;SDS011;53940;53.204;6.590;2024-02-16T08:44:41;2.05;;;0.60;;
67037;SDS011;53940;53.204;6.590;2024-02-16T08:47:43;2.28;;;0.65;;
67037;SDS011;53940;53.204;6.590;2024-02-16T08:50:44;1.33;;;0.50;;
67037;SDS011;53940;53.204;6.590;2024-02-16T08:53:44;0.80;;;0.55;;
67037;SDS011;53940;53.204;6.590;2024-02-16T08:56:45;0.90;;;0.50;;
67037;SDS011;53940;53.204;6.590;2024-02-16T08:59:45;2.20;;;0.63;;
67037;SDS011;53940;53.204;6.590;2024-02-16T09:02:46;0.95;;;0.50;;
67037;SDS011;53940;53.204;6.590;2024-02-16T09:05:46;1.67;;;0.60;;
67037;SDS011;53940;53.204;6.590;2024-02-16T09:08:47;1.42;;;0.70;;
67037;SDS011;53940;53.204;6.590;2024-02-16T09:11:48;1.42;;;0.50;;
67037;SDS011;53940;53.204;6.590;2024-02-16T09:14:48;1.23;;;0.60;;
67037;SDS011;53940;53.204;6.590;2024-02-16T09:17:48;0.60;;;0.45;;
67037;SDS011;53940;53.204;6.590;2024-02-16T09:20:49;0.95;;;0.70;;
67037;SDS011;53940;53.204;6.590;2024-02-16T09:23:49;2.33;;;0.60;;
67037;SDS011;53940;53.204;6.590;2024-02-16T09:26:49;1.98;;;0.60;;
67037;SDS011;53940;53.204;6.590;2024-02-16T09:29:50;2.40;;;0.77;;
67037;SDS011;53940;53.204;6.590;2024-02-16T09:32:50;2.10;;;0.80;;
67037;SDS011;53940;53.204;6.590;2024-02-16T09:35:50;1.35;;;0.70;;
67037;SDS011;53940;53.204;6.590;2024-02-16T09:38:51;1.13;;;0.63;;
67037;SDS011;53940;53.204;6.590;2024-02-16T09:41:51;1.33;;;0.50;;
67037;SDS011;53940;53.204;6.590;2024-02-16T09:44:52;1.25;;;0.60;;
67037;SDS011;53940;53.204;6.590;2024-02-16T09:47:54;0.95;;;0.50;;
67037;SDS011;53940;53.204;6.590;2024-02-16T09:50:56;1.50;;;0.60;;
67037;SDS011;53940;53.204;6.590;2024-02-16T09:53:59;1.23;;;0.65;;
67037;SDS011;53940;53.204;6.590;2024-02-16T09:57:01;1.38;;;0.60;;
67037;SDS011;53940;53.204;6.590;2024-02-16T10:00:04;1.50;;;0.60;;
67037;SDS011;53940;53.204;6.590;2024-02-16T10:03:05;1.10;;;0.65;;
67037;SDS011;53940;53.204;6.590;2024-02-16T10:06:05;0.93;;;0.50;;
67037;SDS011;53940;53.204;6.590;2024-02-16T10:09:07;0.98;;;0.50;;
67037;SDS011;53940;53.204;6.590;2024-02-16T10:12:07;1.00;;;0.60;;
67037;SDS011;53940;53.204;6.590;2024-02-16T10:15:08;1.38;;;0.50;;
67037;SDS011;53940;53.204;6.590;2024-02-16T10:18:09;0.68;;;0.40;;
67037;SDS011;53940;53.204;6.590;2024-02-16T10:21:09;1.17;;;0.60;;
67037;SDS011;53940;53.204;6.590;2024-02-16T10:24:10;1.23;;;0.50;;
67037;SDS011;53940;53.204;6.590;2024-02-16T10:27:17;1.30;;;0.60;;
67037;SDS011;53940;53.204;6.590;2024-02-16T10:30:17;1.77;;;0.70;;
67037;SDS011;53940;53.204;6.590;2024-02-16T10:33:19;0.70;;;0.40;;
67037;SDS011;53940;53.204;6.590;2024-02-16T10:36:19;1.25;;;0.60;;
67037;SDS011;53940;53.204;6.590;2024-02-16T10:39:20;1.17;;;0.55;;
67037;SDS011;53940;53.204;6.590;2024-02-16T10:42:21;1.23;;;0.57;;
67037;SDS011;53940;53.204;6.590;2024-02-16T10:45:25;0.90;;;0.50;;
67037;SDS011;53940;53.204;6.590;2024-02-16T10:48:25;1.05;;;0.52;;
67037;SDS011;53940;53.204;6.590;2024-02-16T10:51:39;0.90;;;0.50;;
67037;SDS011;53940;53.204;6.590;2024-02-16T10:54:42;1.65;;;0.68;;
67037;SDS011;53940;53.204;6.590;2024-02-16T10:57:43;0.80;;;0.50;;
67037;SDS011;53940;53.204;6.590;2024-02-16T11:01:26;1.23;;;0.60;;
67037;SDS011;53940;53.204;6.590;2024-02-16T11:04:17;1.38;;;0.60;;
67037;SDS011;53940;53.204;6.590;2024-02-16T11:07:19;0.85;;;0.45;;
67037;SDS011;53940;53.204;6.590;2024-02-16T11:10:20;1.23;;;0.50;;
67037;SDS011;53940;53.204;6.590;2024-02-16T11:13:23;1.25;;;0.55;;
67037;SDS011;53940;53.204;6.590;2024-02-16T11:16:27;0.93;;;0.40;;
67037;SDS011;53940;53.204;6.590;2024-02-16T11:19:29;0.98;;;0.50;;
67037;SDS011;53940;53.204;6.590;2024-02-16T11:22:30;1.02;;;0.55;;
67037;SDS011;53940;53.204;6.590;2024-02-16T11:25:30;1.10;;;0.60;;
67037;SDS011;53940;53.204;6.590;2024-02-16T11:28:32;1.33;;;0.70;;
67037;SDS011;53940;53.204;6.590;2024-02-16T11:31:33;1.30;;;0.52;;
67037;SDS011;53940;53.204;6.590;2024-02-16T11:34:34;1.50;;;0.68;;
67037;SDS011;53940;53.204;6.590;2024-02-16T11:37:34;1.48;;;0.60;;
67037;SDS011;53940;53.204;6.590;2024-02-16T11:40:35;1.48;;;0.50;;
67037;SDS011;53940;53.204;6.590;2024-02-16T11:43:35;0.82;;;0.50;;
67037;SDS011;53940;53.204;6.590;2024-02-16T11:46:36;2.67;;;0.70;;
67037;SDS011;53940;53.204;6.590;2024-02-16T11:49:38;1.05;;;0.50;;
67037;SDS011;53940;53.204;6.590;2024-02-16T11:52:39;1.40;;;0.30;;
67037;SDS011;53940;53.204;6.590;2024-02-16T11:55:40;1.48;;;0.70;;
67037;SDS011;53940;53.204;6.590;2024-02-16T11:58:47;0.70;;;0.50;;
67037;SDS011;53940;53.204;6.590;2024-02-16T12:01:57;0.55;;;0.40;;
67037;SDS011;53940;53.204;6.590;2024-02-16T12:04:59;0.95;;;0.50;;
67037;SDS011;53940;53.204;6.590;2024-02-16T12:08:00;2.28;;;0.57;;
67037;SDS011;53940;53.204;6.590;2024-02-16T12:11:00;1.90;;;0.60;;
67037;SDS011;53940;53.204;6.590;2024-02-16T12:14:02;2.50;;;0.90;;
67037;SDS011;53940;53.204;6.590;2024-02-16T12:17:02;3.13;;;1.10;;
67037;SDS011;53940;53.204;6.590;2024-02-16T12:20:10;4.70;;;1.17;;
67037;SDS011;53940;53.204;6.590;2024-02-16T12:23:12;3.50;;;1.40;;
67037;SDS011;53940;53.204;6.590;2024-02-16T12:26:15;6.40;;;1.75;;
67037;SDS011;53940;53.204;6.590;2024-02-16T12:29:16;3.47;;;1.20;;
67037;SDS011;53940;53.204;6.590;2024-02-16T12:32:16;4.20;;;1.70;;
67037;SDS011;53940;53.204;6.590;2024-02-16T12:35:19;3.75;;;1.20;;
67037;SDS011;53940;53.204;6.590;2024-02-16T12:38:19;3.60;;;1.50;;
67037;SDS011;53940;53.204;6.590;2024-02-16T12:41:20;3.28;;;1.40;;
67037;SDS011;53940;53.204;6.590;2024-02-16T12:44:21;3.50;;;1.50;;
67037;SDS011;53940;53.204;6.590;2024-02-16T12:47:21;4.75;;;1.83;;
67037;SDS011;53940;53.204;6.590;2024-02-16T12:50:22;3.20;;;1.40;;
67037;SDS011;53940;53.204;6.590;2024-02-16T12:53:22;4.18;;;1.52;;
67037;SDS011;53940;53.204;6.590;2024-02-16T12:56:24;4.20;;;1.42;;
67037;SDS011;53940;53.204;6.590;2024-02-16T12:59:26;3.05;;;1.23;;
67037;SDS011;53940;53.204;6.590;2024-02-16T13:02:26;3.13;;;1.27;;
67037;SDS011;53940;53.204;6.590;2024-02-16T13:05:27;3.60;;;1.50;;
67037;SDS011;53940;53.204;6.590;2024-02-16T13:08:28;3.83;;;1.60;;
67037;SDS011;53940;53.204;6.590;2024-02-16T13:11:28;4.20;;;1.40;;
67037;SDS011;53940;53.204;6.590;2024-02-16T13:14:29;4.47;;;1.52;;
67037;SDS011;53940;53.204;6.590;2024-02-16T13:17:29;3.63;;;1.30;;
67037;SDS011;53940;53.204;6.590;2024-02-16T13:20:29;3.38;;;1.30;;
67037;SDS011;53940;53.204;6.590;2024-02-16T13:23:30;3.25;;;1.55;;
67037;SDS011;53940;53.204;6.590;2024-02-16T13:26:31;4.30;;;1.58;;
67037;SDS011;53940;53.204;6.590;2024-02-16T13:29:31;3.00;;;1.10;;
67037;SDS011;53940;53.204;6.590;2024-02-16T13:32:32;3.10;;;1.50;;
67037;SDS011;53940;53.204;6.590;2024-02-16T13:35:33;3.00;;;1.20;;
67037;SDS011;53940;53.204;6.590;2024-02-16T13:38:35;2.33;;;1.30;;
67037;SDS011;53940;53.204;6.590;2024-02-16T13:41:36;2.83;;;0.90;;
67037;SDS011;53940;53.204;6.590;2024-02-16T13:44:36;3.70;;;1.38;;
67037;SDS011;53940;53.204;6.590;2024-02-16T13:47:37;2.28;;;0.80;;
67037;SDS011;53940;53.204;6.590;2024-02-16T13:50:43;3.35;;;1.23;;
67037;SDS011;53940;53.204;6.590;2024-02-16T13:53:44;2.53;;;1.02;;
67037;SDS011;53940;53.204;6.590;2024-02-16T13:56:45;2.55;;;1.20;;
67037;SDS011;53940;53.204;6.590;2024-02-16T13:59:45;3.15;;;1.13;;
67037;SDS011;53940;53.204;6.590;2024-02-16T14:02:46;4.82;;;1.15;;
67037;SDS011;53940;53.204;6.590;2024-02-16T14:05:46;2.55;;;1.30;;
67037;SDS011;53940;53.204;6.590;2024-02-16T14:08:47;2.65;;;1.70;;
67037;SDS011;53940;53.204;6.590;2024-02-16T14:11:52;1.83;;;0.90;;
67037;SDS011;53940;53.204;6.590;2024-02-16T14:14:58;2.78;;;1.13;;
67037;SDS011;53940;53.204;6.590;2024-02-16T14:17:59;2.78;;;0.90;;
67037;SDS011;53940;53.204;6.590;2024-02-16T14:20:59;2.33;;;1.38;;
67037;SDS011;53940;53.204;6.590;2024-02-16T14:24:00;2.45;;;0.93;;
67037;SDS011;53940;53.204;6.590;2024-02-16T14:27:01;3.15;;;1.23;;
67037;SDS011;53940;53.204;6.590;2024-02-16T14:30:01;2.28;;;1.02;;
67037;SDS011;53940;53.204;6.590;2024-02-16T14:33:02;2.38;;;0.90;;
67037;SDS011;53940;53.204;6.590;2024-02-16T14:36:04;2.58;;;1.05;;
67037;SDS011;53940;53.204;6.590;2024-02-16T14:39:05;2.72;;;1.10;;
67037;SDS011;53940;53.204;6.590;2024-02-16T14:42:06;2.33;;;0.90;;
67037;SDS011;53940;53.204;6.590;2024-02-16T14:45:07;2.58;;;0.90;;
67037;SDS011;53940;53.204;6.590;2024-02-16T14:48:18;2.05;;;0.80;;
67037;SDS011;53940;53.204;6.590;2024-02-16T14:51:19;1.77;;;0.80;;
67037;SDS011;53940;53.204;6.590;2024-02-16T14:54:20;2.35;;;1.00;;
67037;SDS011;53940;53.204;6.590;2024-02-16T14:57:20;2.30;;;0.93;;
67037;SDS011;53940;53.204;6.590;2024-02-16T15:00:22;2.05;;;0.75;;
67037;SDS011;53940;53.204;6.590;2024-02-16T15:03:24;2.28;;;1.00;;
67037;SDS011;53940;53.204;6.590;2024-02-16T15:06:27;3.28;;;0.90;;
67037;SDS011;53940;53.204;6.590;2024-02-16T15:09:27;2.30;;;0.95;;
67037;SDS011;53940;53.204;6.590;2024-02-16T15:12:29;1.95;;;0.88;;
67037;SDS011;53940;53.204;6.590;2024-02-16T15:15:29;1.65;;;0.88;;
67037;SDS011;53940;53.204;6.590;2024-02-16T15:18:29;2.22;;;0.70;;
67037;SDS011;53940;53.204;6.590;2024-02-16T15:21:30;1.40;;;0.73;;
67037;SDS011;53940;53.204;6.590;2024-02-16T15:24:30;2.08;;;0.70;;
67037;SDS011;53940;53.204;6.590;2024-02-16T15:27:30;1.55;;;0.82;;
67037;SDS011;53940;53.204;6.590;2024-02-16T15:30:31;1.33;;;0.70;;
67037;SDS011;53940;53.204;6.590;2024-02-16T15:33:31;1.52;;;0.65;;
67037;SDS011;53940;53.204;6.590;2024-02-16T15:36:31;2.28;;;0.70;;
67037;SDS011;53940;53.204;6.590;2024-02-16T15:39:32;2.83;;;0.95;;
67037;SDS011;53940;53.204;6.590;2024-02-16T15:42:32;2.42;;;0.80;;
67037;SDS011;53940;53.204;6.590;2024-02-16T15:45:35;1.55;;;0.80;;
67037;SDS011;53940;53.204;6.590;2024-02-16T15:48:39;1.73;;;0.85;;
67037;SDS011;53940;53.204;6.590;2024-02-16T15:51:40;1.80;;;0.80;;
67037;SDS011;53940;53.204;6.590;2024-02-16T15:54:40;1.50;;;0.60;;
67037;SDS011;53940;53.204;6.590;2024-02-16T15:57:40;2.80;;;0.77;;
67037;SDS011;53940;53.204;6.590;2024-02-16T16:00:41;1.67;;;0.80;;
67037;SDS011;53940;53.204;6.590;2024-02-16T16:03:41;0.93;;;0.60;;
67037;SDS011;53940;53.204;6.590;2024-02-16T16:06:43;1.90;;;0.65;;
67037;SDS011;53940;53.204;6.590;2024-02-16T16:09:44;1.75;;;0.70;;
67037;SDS011;53940;53.204;6.590;2024-02-16T16:12:44;1.00;;;0.60;;
67037;SDS011;53940;53.204;6.590;2024-02-16T16:15:46;1.08;;;0.73;;
67037;SDS011;53940;53.204;6.590;2024-02-16T16:18:46;1.50;;;0.80;;
67037;SDS011;53940;53.204;6.590;2024-02-16T16:21:47;1.02;;;0.52;;
67037;SDS011;53940;53.204;6.590;2024-02-16T16:24:47;1.08;;;0.50;;
67037;SDS011;53940;53.204;6.590;2024-02-16T16:27:47;1.13;;;0.68;;
67037;SDS011;53940;53.204;6.590;2024-02-16T16:30:48;1.85;;;0.77;;
67037;SDS011;53940;53.204;6.590;2024-02-16T16:33:48;1.75;;;0.70;;
67037;SDS011;53940;53.204;6.590;2024-02-16T16:36:49;0.95;;;0.60;;
67037;SDS011;53940;53.204;6.590;2024-02-16T16:39:49;1.73;;;0.68;;
67037;SDS011;53940;53.204;6.590;2024-02-16T16:42:49;1.67;;;0.70;;
67037;SDS011;53940;53.204;6.590;2024-02-16T16:45:50;1.50;;;0.70;;
67037;SDS011;53940;53.204;6.590;2024-02-16T16:48:50;1.00;;;0.60;;
67037;SDS011;53940;53.204;6.590;2024-02-16T16:51:50;1.33;;;0.70;;
67037;SDS011;53940;53.204;6.590;2024-02-16T16:54:51;2.10;;;0.70;;
67037;SDS011;53940;53.204;6.590;2024-02-16T16:57:51;1.17;;;0.70;;
67037;SDS011;53940;53.204;6.590;2024-02-16T17:00:52;1.95;;;0.50;;
67037;SDS011;53940;53.204;6.590;2024-02-16T17:03:52;1.35;;;0.60;;
67037;SDS011;53940;53.204;6.590;2024-02-16T17:06:53;1.25;;;0.70;;
67037;SDS011;53940;53.204;6.590;2024-02-16T17:09:54;1.13;;;0.70;;
67037;SDS011;53940;53.204;6.590;2024-02-16T17:12:56;1.63;;;0.65;;
67037;SDS011;53940;53.204;6.590;2024-02-16T17:15:57;1.15;;;0.70;;
67037;SDS011;53940;53.204;6.590;2024-02-16T17:18:59;1.85;;;0.60;;
67037;SDS011;53940;53.204;6.590;2024-02-16T17:22:00;1.25;;;0.60;;
67037;SDS011;53940;53.204;6.590;2024-02-16T17:25:03;1.88;;;0.70;;
67037;SDS011;53940;53.204;6.590;2024-02-16T17:28:04;1.25;;;0.60;;
67037;SDS011;53940;53.204;6.590;2024-02-16T17:31:06;1.77;;;0.60;;
67037;SDS011;53940;53.204;6.590;2024-02-16T17:34:06;2.28;;;0.80;;
67037;SDS011;53940;53.204;6.590;2024-02-16T17:37:08;1.77;;;0.80;;
67037;SDS011;53940;53.204;6.590;2024-02-16T17:40:08;1.83;;;0.70;;
67037;SDS011;53940;53.204;6.590;2024-02-16T17:43:10;1.38;;;0.70;;
67037;SDS011;53940;53.204;6.590;2024-02-16T17:46:11;1.40;;;0.63;;
67037;SDS011;53940;53.204;6.590;2024-02-16T17:49:11;1.95;;;0.57;;
67037;SDS011;53940;53.204;6.590;2024-02-16T17:52:12;1.70;;;0.70;;
67037;SDS011;53940;53.204;6.590;2024-02-16T17:55:12;3.17;;;0.70;;
67037;SDS011;53940;53.204;6.590;2024-02-16T17:58:14;2.00;;;0.60;;
67037;SDS011;53940;53.204;6.590;2024-02-16T18:01:15;1.85;;;0.60;;
67037;SDS011;53940;53.204;6.590;2024-02-16T18:04:15;1.15;;;0.70;;
67037;SDS011;53940;53.204;6.590;2024-02-16T18:07:15;1.63;;;0.70;;
67037;SDS011;53940;53.204;6.590;2024-02-16T18:10:17;2.10;;;0.82;;
67037;SDS011;53940;53.204;6.590;2024-02-16T18:13:18;1.67;;;0.73;;